African Highway — 3EOD8 — position and weather

sailwx.info

Track history (hours):
 
Tides and Currents Weather Stations Pressure Air Temp Water Temp Dewpoint Dewpoint Depression Visibility Wind Speed Wind Dir Waves Ship Positions

African Highway

Last reported at 2016-Aug-25 03:34 UTC. Time now 2016-Aug-25 04:32 UTC.
Position N 53°20' E 007°10'.

Length 154.5 m; beam 27.6 m.

Type: Ship. MMSI: 353633000.

Date/timePositionNaut miles runAvg speedWind from/ knotsBaromVisibWave heightAir tempDewpointWater temp
2016-Aug-25 03:34N 53°20' E 007°10'6 6.4
2016-Aug-25 02:34N 53°21' E 006°59'1211.7
2016-Aug-25 01:33N 53°30' E 006°48'1313.1
2016-Aug-25 00:34N 53°37' E 006°29'8 7.5
2016-Aug-24 23:33N 53°38' E 006°17'1515.3
2016-Aug-24 22:33N 53°38' E 005°51'1716.5
2016-Aug-24 21:33N 53°33' E 005°24'1716.5
2016-Aug-24 20:33N 53°27' E 004°58'1615.9
2016-Aug-24 19:33N 53°18' E 004°37'1514.3
2016-Aug-24 18:29N 53°20' E 004°11'1414.7
2016-Aug-24 17:33N 53°19' E 003°48'1413.9
2016-Aug-24 16:33N 53°22' E 003°26'4814.6
2016-Aug-24 13:16N 53°37' E 002°09'1115.6
2016-Aug-24 12:34N 53°37' E 001°50'2416.3
2016-Aug-24 11:04N 53°39' E 001°09'816.4
2016-Aug-24 10:33N 53°37' E 000°55'1616.1
2016-Aug-24 09:33N 53°32' E 000°29'1212.3
2016-Aug-24 08:33N 53°33' E 000°08'8 7.8
2016-Aug-24 07:33N 53°35' W 000°04'0 0.0
2016-Aug-24 06:33N 53°35' W 000°04'0 0.0
2016-Aug-24 04:33N 53°35' W 000°04'0 0.0
2016-Aug-24 03:33N 53°35' W 000°04'0 0.0
2016-Aug-24 02:33N 53°35' W 000°04'0 0.0
2016-Aug-24 01:33N 53°35' W 000°04'0 0.0
2016-Aug-24 00:33N 53°35' W 000°04'0 0.0
2016-Aug-23 23:33N 53°35' W 000°04'0 0.0
2016-Aug-23 22:33N 53°35' W 000°04'0 0.0
2016-Aug-23 21:33N 53°35' W 000°04'1 0.6
2016-Aug-23 20:33N 53°35' W 000°03'10 9.5
2016-Aug-23 19:33N 53°33' E 000°13'8 7.6
2016-Aug-23 18:33N 53°33' E 000°26'4 3.6
2016-Aug-23 17:33N 53°33' E 000°32'5 4.7
2016-Aug-23 16:33N 53°38' E 000°32'5 4.6
2016-Aug-23 15:33N 53°42' E 000°32'2 2.0
2016-Aug-23 14:33N 53°44' E 000°32'3 3.1
2016-Aug-23 13:33N 53°41' E 000°34'3 3.1
2016-Aug-23 12:33N 53°38' E 000°34'3 2.6
2016-Aug-23 11:33N 53°36' E 000°35'1 1.1
2016-Aug-23 10:33N 53°35' E 000°36'1211.9
2016-Aug-23 09:33N 53°37' E 000°56'1312.7
2016-Aug-23 08:33N 53°41' E 001°16'11912.7
2016-Aug-22 23:12N 54°03' E 004°34'711.5
2016-Aug-22 22:33N 54°04' E 004°46'1111.5
2016-Aug-22 21:33N 54°05' E 005°06'1110.8
2016-Aug-22 20:33N 53°59' E 005°21'1211.7
2016-Aug-22 19:33N 53°54' E 005°39'1212.2
2016-Aug-22 18:33N 53°50' E 005°58'1212.1
2016-Aug-22 17:33N 53°40' E 006°10'1211.8
2016-Aug-22 16:34N 53°37' E 006°29'1615.7
2016-Aug-22 15:33N 53°28' E 006°51'1212.1
2016-Aug-22 14:33N 53°20' E 007°06'3 3.4
2016-Aug-22 13:33N 53°20' E 007°12'0 0.3
2016-Aug-22 12:33N 53°21' E 007°12'0 0.0
2016-Aug-22 11:33N 53°21' E 007°12'0 0.0
2016-Aug-22 10:33N 53°21' E 007°12'0 0.0
2016-Aug-22 09:33N 53°21' E 007°12'0 0.0
2016-Aug-22 08:33N 53°21' E 007°12'0 0.0
2016-Aug-22 07:33N 53°21' E 007°12'0 0.0
2016-Aug-22 06:33N 53°21' E 007°12'0 0.0
2016-Aug-22 05:33N 53°21' E 007°12'0 0.0
2016-Aug-22 04:33N 53°21' E 007°12'0 0.0
2016-Aug-22 03:33N 53°21' E 007°12'0 0.0
2016-Aug-22 02:34N 53°21' E 007°12'0 0.0
2016-Aug-22 01:33N 53°21' E 007°12'0 0.0
2016-Aug-22 00:33N 53°21' E 007°12'0 0.0
2016-Aug-21 23:33N 53°21' E 007°12'0 0.0
2016-Aug-21 22:33N 53°21' E 007°12'0 0.0
2016-Aug-21 21:33N 53°21' E 007°12'0 0.0
2016-Aug-21 20:33N 53°21' E 007°12'0 0.0
2016-Aug-21 19:33N 53°21' E 007°12'0 0.0
2016-Aug-21 18:33N 53°21' E 007°12'0 0.0
2016-Aug-21 17:33N 53°21' E 007°12'0 0.0
2016-Aug-21 16:33N 53°21' E 007°12'0 0.0
2016-Aug-21 15:33N 53°21' E 007°12'0 0.0
2016-Aug-21 14:33N 53°21' E 007°12'0 0.0
2016-Aug-21 13:33N 53°21' E 007°12'0 0.0
2016-Aug-21 12:33N 53°21' E 007°12'0 0.0
2016-Aug-21 11:33N 53°21' E 007°12'0 0.0
2016-Aug-21 10:33N 53°21' E 007°12'0 0.0
2016-Aug-21 09:33N 53°21' E 007°12'0 0.0
2016-Aug-21 08:33N 53°21' E 007°12'0 0.0
2016-Aug-21 07:33N 53°21' E 007°12'0 0.0
2016-Aug-21 06:33N 53°21' E 007°12'0 0.0
2016-Aug-21 05:33N 53°21' E 007°12'0 0.0
2016-Aug-21 04:33N 53°21' E 007°12'0 0.0
2016-Aug-21 03:33N 53°21' E 007°12'0 0.0
2016-Aug-21 02:33N 53°21' E 007°12'0 0.3
2016-Aug-21 01:33N 53°20' E 007°12'1 1.0
2016-Aug-21 00:33N 53°20' E 007°10'9 8.9
2016-Aug-20 23:34N 53°24' E 006°57'1515.5
2016-Aug-20 22:34N 53°35' E 006°38'1212.4
2016-Aug-20 21:33N 53°38' E 006°18'1110.8
2016-Aug-20 20:33N 53°42' E 006°01'1414.1
2016-Aug-20 19:33N 53°50' E 005°40'1515.4
2016-Aug-20 18:33N 53°55' E 005°16'1514.9
2016-Aug-20 17:33N 53°59' E 004°52'14714.6
2016-Aug-20 07:32N 53°35' E 000°47'1515.0
2016-Aug-20 06:33N 53°33' E 000°23'9 9.4
2016-Aug-20 05:33N 53°33' E 000°07'7 6.8
2016-Aug-20 04:33N 53°35' W 000°04'0 0.0
2016-Aug-20 03:33N 53°35' W 000°04'0 0.0
2016-Aug-20 02:33N 53°35' W 000°04'0 0.0
2016-Aug-20 01:33N 53°35' W 000°04'0 0.0
2016-Aug-20 00:33N 53°35' W 000°04'0 0.0
2016-Aug-19 23:33N 53°35' W 000°04'0 0.0
2016-Aug-19 22:33N 53°35' W 000°04'0 0.0
2016-Aug-19 21:33N 53°35' W 000°04'0 0.0
2016-Aug-19 20:33N 53°35' W 000°04'0 0.0
2016-Aug-19 19:33N 53°35' W 000°04'0 0.0
2016-Aug-19 18:33N 53°35' W 000°04'4 3.9
2016-Aug-19 17:34N 53°35' E 000°02'9 9.2
2016-Aug-19 16:34N 53°33' E 000°18'10 9.5
2016-Aug-19 15:33N 53°33' E 000°34'4 3.7
2016-Aug-19 14:32N 53°34' E 000°40'1814.9
2016-Aug-19 13:22N 53°39' E 001°08'1315.1
2016-Aug-19 12:31N 53°44' E 001°29'1514.9
2016-Aug-19 11:31N 53°49' E 001°52'1815.3
2016-Aug-19 10:22N 53°51' E 002°22'1514.8
2016-Aug-19 09:20N 53°54' E 002°47'6914.4
2016-Aug-19 04:33N 54°04' E 004°43'1515.1
2016-Aug-19 03:34N 54°06' E 005°08'1313.0
2016-Aug-19 02:34N 53°59' E 005°26'1615.9
2016-Aug-19 01:34N 53°54' E 005°52'1414.3
2016-Aug-19 00:34N 53°46' E 006°13'1212.3
2016-Aug-18 23:34N 53°37' E 006°26'1414.4
2016-Aug-18 22:34N 53°30' E 006°48'1313.2
2016-Aug-18 21:33N 53°20' E 007°01'6 5.8
2016-Aug-18 20:32N 53°20' E 007°10'0 0.0
2016-Aug-18 19:32N 53°20' E 007°10'0 0.0
2016-Aug-18 18:32N 53°20' E 007°10'0 0.0
2016-Aug-18 17:32N 53°20' E 007°10'0 0.0
2016-Aug-18 16:32N 53°20' E 007°10'0 0.0
2016-Aug-18 15:26N 53°20' E 007°10'0 0.0
2016-Aug-18 14:29N 53°20' E 007°10'0 0.0
2016-Aug-18 13:29N 53°20' E 007°10'0 0.0
2016-Aug-18 12:29N 53°20' E 007°10'0 0.0
2016-Aug-18 11:32N 53°20' E 007°10'1 0.6
2016-Aug-18 10:34N 53°20' E 007°09'1010.3
2016-Aug-18 09:33N 53°26' E 006°55'1716.5
2016-Aug-18 08:33N 53°36' E 006°34'1312.6
2016-Aug-18 07:34N 53°38' E 006°13'1616.3
2016-Aug-18 06:34N 53°36' E 005°45'1716.7
2016-Aug-18 05:34N 53°31' E 005°18'1716.6
2016-Aug-18 04:33N 53°26' E 004°52'1616.1
2016-Aug-18 03:34N 53°21' E 004°26'1615.4
2016-Aug-18 02:33N 53°19' E 004°00'1614.4
2016-Aug-18 01:25N 53°20' E 003°33'2814.0
2016-Aug-17 23:27N 53°32' E 002°51'1314.1
2016-Aug-17 22:34N 53°36' E 002°31'1414.5
2016-Aug-17 21:34N 53°37' E 002°07'1515.0
2016-Aug-17 20:34N 53°37' E 001°42'1515.4
2016-Aug-17 19:34N 53°38' E 001°16'1515.3
2016-Aug-17 18:33N 53°36' E 000°50'1514.5
2016-Aug-17 17:33N 53°32' E 000°27'1111.0
2016-Aug-17 16:33N 53°33' E 000°08'8 7.5
2016-Aug-17 15:33N 53°35' W 000°04'0 0.0
2016-Aug-17 14:33N 53°35' W 000°04'0 0.0
2016-Aug-17 13:33N 53°35' W 000°04'0 0.0
2016-Aug-17 12:33N 53°35' W 000°04'0 0.0
2016-Aug-17 11:33N 53°35' W 000°04'0 0.0
2016-Aug-17 10:33N 53°35' W 000°04'0 0.0
2016-Aug-17 09:33N 53°35' W 000°04'0 0.0
2016-Aug-17 08:33N 53°35' W 000°04'0 0.0
2016-Aug-17 07:33N 53°35' W 000°04'0 0.0
2016-Aug-17 06:33N 53°35' W 000°04'0 0.0
2016-Aug-17 05:33N 53°35' W 000°04'0 0.0
2016-Aug-17 04:33N 53°35' W 000°04'5 4.5
2016-Aug-17 03:34N 53°35' E 000°04'10 9.7
2016-Aug-17 02:33N 53°33' E 000°20'5 5.2
2016-Aug-17 01:33N 53°33' E 000°29'6 6.2
2016-Aug-17 00:33N 53°34' E 000°39'1413.8
2016-Aug-16 23:33N 53°38' E 001°01'1715.2
2016-Aug-16 22:26N 53°44' E 001°28'1515.3
2016-Aug-16 21:27N 53°50' E 001°52'1314.1
2016-Aug-16 20:33N 53°55' E 002°11'1 1.2
2016-Aug-16 19:33N 53°56' E 002°13'0 0.4
2016-Aug-16 18:33N 53°56' E 002°14'46 4.4
2016-Aug-16 08:06N 53°59' E 003°31'914.8
2016-Aug-16 07:29N 53°59' E 003°47'4214.4
2016-Aug-16 04:33N 54°05' E 004°58'1010.1
2016-Aug-16 03:33N 54°01' E 005°14'1514.7
2016-Aug-16 02:33N 53°57' E 005°38'1515.5
2016-Aug-16 01:33N 53°52' E 006°03'1212.0
2016-Aug-16 00:33N 53°43' E 006°16'1211.9
2016-Aug-15 23:33N 53°37' E 006°34'1717.1
2016-Aug-15 22:34N 53°26' E 006°55'1010.2
2016-Aug-15 21:34N 53°20' E 007°10'1 1.3
2016-Aug-15 20:28N 53°21' E 007°12'0 0.0
2016-Aug-15 19:31N 53°21' E 007°12'0 0.0
2016-Aug-15 18:31N 53°21' E 007°12'0 0.0
2016-Aug-15 17:31N 53°21' E 007°12'0 0.0
2016-Aug-15 16:31N 53°21' E 007°12'0 0.0
2016-Aug-15 15:31N 53°21' E 007°12'0 0.0
2016-Aug-15 14:31N 53°21' E 007°12'0 0.0
2016-Aug-15 13:31N 53°21' E 007°12'0 0.0
2016-Aug-15 12:28N 53°21' E 007°12'0 0.0
2016-Aug-15 11:31N 53°21' E 007°12'0 0.0
2016-Aug-15 10:31N 53°21' E 007°12'0 0.1
2016-Aug-15 09:33N 53°21' E 007°12'2 1.6
2016-Aug-15 08:33N 53°20' E 007°09'1110.9
2016-Aug-15 07:34N 53°26' E 006°54'1616.2
2016-Aug-15 06:34N 53°37' E 006°33'2512.6
2016-Aug-15 04:34N 53°38' E 005°51'  
Track history (hours):
 
Tides and Currents Weather Stations Pressure Air Temp Water Temp Dewpoint Dewpoint Depression Visibility Wind Speed Wind Dir Waves Ship Positions

African Highway

Last reported at 2016-Aug-25 03:34 UTC. Time now 2016-Aug-25 04:32 UTC.
Position N 53°20' E 007°10'.

Length 154.5 m; beam 27.6 m.

Type: Ship. MMSI: 353633000.

Date/timePositionNaut miles runAvg speedWind from/ knotsBaromVisibWave heightAir tempDewpointWater temp
2016-Aug-25 03:34N 53°20' E 007°10'6 6.4
2016-Aug-25 02:34N 53°21' E 006°59'1211.7
2016-Aug-25 01:33N 53°30' E 006°48'1313.1
2016-Aug-25 00:34N 53°37' E 006°29'8 7.5
2016-Aug-24 23:33N 53°38' E 006°17'1515.3
2016-Aug-24 22:33N 53°38' E 005°51'1716.5
2016-Aug-24 21:33N 53°33' E 005°24'1716.5
2016-Aug-24 20:33N 53°27' E 004°58'1615.9
2016-Aug-24 19:33N 53°18' E 004°37'1514.3
2016-Aug-24 18:29N 53°20' E 004°11'1414.7
2016-Aug-24 17:33N 53°19' E 003°48'1413.9
2016-Aug-24 16:33N 53°22' E 003°26'4814.6
2016-Aug-24 13:16N 53°37' E 002°09'1115.6
2016-Aug-24 12:34N 53°37' E 001°50'2416.3
2016-Aug-24 11:04N 53°39' E 001°09'816.4
2016-Aug-24 10:33N 53°37' E 000°55'1616.1
2016-Aug-24 09:33N 53°32' E 000°29'1212.3
2016-Aug-24 08:33N 53°33' E 000°08'8 7.8
2016-Aug-24 07:33N 53°35' W 000°04'0 0.0
2016-Aug-24 06:33N 53°35' W 000°04'0 0.0
2016-Aug-24 04:33N 53°35' W 000°04'0 0.0
2016-Aug-24 03:33N 53°35' W 000°04'0 0.0
2016-Aug-24 02:33N 53°35' W 000°04'0 0.0
2016-Aug-24 01:33N 53°35' W 000°04'0 0.0
2016-Aug-24 00:33N 53°35' W 000°04'0 0.0
2016-Aug-23 23:33N 53°35' W 000°04'0 0.0
2016-Aug-23 22:33N 53°35' W 000°04'0 0.0
2016-Aug-23 21:33N 53°35' W 000°04'1 0.6
2016-Aug-23 20:33N 53°35' W 000°03'10 9.5
2016-Aug-23 19:33N 53°33' E 000°13'8 7.6
2016-Aug-23 18:33N 53°33' E 000°26'4 3.6
2016-Aug-23 17:33N 53°33' E 000°32'5 4.7
2016-Aug-23 16:33N 53°38' E 000°32'5 4.6
2016-Aug-23 15:33N 53°42' E 000°32'2 2.0
2016-Aug-23 14:33N 53°44' E 000°32'3 3.1
2016-Aug-23 13:33N 53°41' E 000°34'3 3.1
2016-Aug-23 12:33N 53°38' E 000°34'3 2.6
2016-Aug-23 11:33N 53°36' E 000°35'1 1.1
2016-Aug-23 10:33N 53°35' E 000°36'1211.9
2016-Aug-23 09:33N 53°37' E 000°56'1312.7
2016-Aug-23 08:33N 53°41' E 001°16'11912.7
2016-Aug-22 23:12N 54°03' E 004°34'711.5
2016-Aug-22 22:33N 54°04' E 004°46'1111.5
2016-Aug-22 21:33N 54°05' E 005°06'1110.8
2016-Aug-22 20:33N 53°59' E 005°21'1211.7
2016-Aug-22 19:33N 53°54' E 005°39'1212.2
2016-Aug-22 18:33N 53°50' E 005°58'1212.1
2016-Aug-22 17:33N 53°40' E 006°10'1211.8
2016-Aug-22 16:34N 53°37' E 006°29'1615.7
2016-Aug-22 15:33N 53°28' E 006°51'1212.1
2016-Aug-22 14:33N 53°20' E 007°06'3 3.4
2016-Aug-22 13:33N 53°20' E 007°12'0 0.3
2016-Aug-22 12:33N 53°21' E 007°12'0 0.0
2016-Aug-22 11:33N 53°21' E 007°12'0 0.0
2016-Aug-22 10:33N 53°21' E 007°12'0 0.0
2016-Aug-22 09:33N 53°21' E 007°12'0 0.0
2016-Aug-22 08:33N 53°21' E 007°12'0 0.0
2016-Aug-22 07:33N 53°21' E 007°12'0 0.0
2016-Aug-22 06:33N 53°21' E 007°12'0 0.0
2016-Aug-22 05:33N 53°21' E 007°12'0 0.0
2016-Aug-22 04:33N 53°21' E 007°12'0 0.0
2016-Aug-22 03:33N 53°21' E 007°12'0 0.0
2016-Aug-22 02:34N 53°21' E 007°12'0 0.0
2016-Aug-22 01:33N 53°21' E 007°12'0 0.0
2016-Aug-22 00:33N 53°21' E 007°12'0 0.0
2016-Aug-21 23:33N 53°21' E 007°12'0 0.0
2016-Aug-21 22:33N 53°21' E 007°12'0 0.0
2016-Aug-21 21:33N 53°21' E 007°12'0 0.0
2016-Aug-21 20:33N 53°21' E 007°12'0 0.0
2016-Aug-21 19:33N 53°21' E 007°12'0 0.0
2016-Aug-21 18:33N 53°21' E 007°12'0 0.0
2016-Aug-21 17:33N 53°21' E 007°12'0 0.0
2016-Aug-21 16:33N 53°21' E 007°12'0 0.0
2016-Aug-21 15:33N 53°21' E 007°12'0 0.0
2016-Aug-21 14:33N 53°21' E 007°12'0 0.0
2016-Aug-21 13:33N 53°21' E 007°12'0 0.0
2016-Aug-21 12:33N 53°21' E 007°12'0 0.0
2016-Aug-21 11:33N 53°21' E 007°12'0 0.0
2016-Aug-21 10:33N 53°21' E 007°12'0 0.0
2016-Aug-21 09:33N 53°21' E 007°12'0 0.0
2016-Aug-21 08:33N 53°21' E 007°12'0 0.0
2016-Aug-21 07:33N 53°21' E 007°12'0 0.0
2016-Aug-21 06:33N 53°21' E 007°12'0 0.0
2016-Aug-21 05:33N 53°21' E 007°12'0 0.0
2016-Aug-21 04:33N 53°21' E 007°12'0 0.0
2016-Aug-21 03:33N 53°21' E 007°12'0 0.0
2016-Aug-21 02:33N 53°21' E 007°12'0 0.3
2016-Aug-21 01:33N 53°20' E 007°12'1 1.0
2016-Aug-21 00:33N 53°20' E 007°10'9 8.9
2016-Aug-20 23:34N 53°24' E 006°57'1515.5
2016-Aug-20 22:34N 53°35' E 006°38'1212.4
2016-Aug-20 21:33N 53°38' E 006°18'1110.8
2016-Aug-20 20:33N 53°42' E 006°01'1414.1
2016-Aug-20 19:33N 53°50' E 005°40'1515.4
2016-Aug-20 18:33N 53°55' E 005°16'1514.9
2016-Aug-20 17:33N 53°59' E 004°52'14714.6
2016-Aug-20 07:32N 53°35' E 000°47'1515.0
2016-Aug-20 06:33N 53°33' E 000°23'9 9.4
2016-Aug-20 05:33N 53°33' E 000°07'7 6.8
2016-Aug-20 04:33N 53°35' W 000°04'0 0.0
2016-Aug-20 03:33N 53°35' W 000°04'0 0.0
2016-Aug-20 02:33N 53°35' W 000°04'0 0.0
2016-Aug-20 01:33N 53°35' W 000°04'0 0.0
2016-Aug-20 00:33N 53°35' W 000°04'0 0.0
2016-Aug-19 23:33N 53°35' W 000°04'0 0.0
2016-Aug-19 22:33N 53°35' W 000°04'0 0.0
2016-Aug-19 21:33N 53°35' W 000°04'0 0.0
2016-Aug-19 20:33N 53°35' W 000°04'0 0.0
2016-Aug-19 19:33N 53°35' W 000°04'0 0.0
2016-Aug-19 18:33N 53°35' W 000°04'4 3.9
2016-Aug-19 17:34N 53°35' E 000°02'9 9.2
2016-Aug-19 16:34N 53°33' E 000°18'10 9.5
2016-Aug-19 15:33N 53°33' E 000°34'4 3.7
2016-Aug-19 14:32N 53°34' E 000°40'1814.9
2016-Aug-19 13:22N 53°39' E 001°08'1315.1
2016-Aug-19 12:31N 53°44' E 001°29'1514.9
2016-Aug-19 11:31N 53°49' E 001°52'1815.3
2016-Aug-19 10:22N 53°51' E 002°22'1514.8
2016-Aug-19 09:20N 53°54' E 002°47'6914.4
2016-Aug-19 04:33N 54°04' E 004°43'1515.1
2016-Aug-19 03:34N 54°06' E 005°08'1313.0
2016-Aug-19 02:34N 53°59' E 005°26'1615.9
2016-Aug-19 01:34N 53°54' E 005°52'1414.3
2016-Aug-19 00:34N 53°46' E 006°13'1212.3
2016-Aug-18 23:34N 53°37' E 006°26'1414.4
2016-Aug-18 22:34N 53°30' E 006°48'1313.2
2016-Aug-18 21:33N 53°20' E 007°01'6 5.8
2016-Aug-18 20:32N 53°20' E 007°10'0 0.0
2016-Aug-18 19:32N 53°20' E 007°10'0 0.0
2016-Aug-18 18:32N 53°20' E 007°10'0 0.0
2016-Aug-18 17:32N 53°20' E 007°10'0 0.0
2016-Aug-18 16:32N 53°20' E 007°10'0 0.0
2016-Aug-18 15:26N 53°20' E 007°10'0 0.0
2016-Aug-18 14:29N 53°20' E 007°10'0 0.0
2016-Aug-18 13:29N 53°20' E 007°10'0 0.0
2016-Aug-18 12:29N 53°20' E 007°10'0 0.0
2016-Aug-18 11:32N 53°20' E 007°10'1 0.6
2016-Aug-18 10:34N 53°20' E 007°09'1010.3
2016-Aug-18 09:33N 53°26' E 006°55'1716.5
2016-Aug-18 08:33N 53°36' E 006°34'1312.6
2016-Aug-18 07:34N 53°38' E 006°13'1616.3
2016-Aug-18 06:34N 53°36' E 005°45'1716.7
2016-Aug-18 05:34N 53°31' E 005°18'1716.6
2016-Aug-18 04:33N 53°26' E 004°52'1616.1
2016-Aug-18 03:34N 53°21' E 004°26'1615.4
2016-Aug-18 02:33N 53°19' E 004°00'1614.4
2016-Aug-18 01:25N 53°20' E 003°33'2814.0
2016-Aug-17 23:27N 53°32' E 002°51'1314.1
2016-Aug-17 22:34N 53°36' E 002°31'1414.5
2016-Aug-17 21:34N 53°37' E 002°07'1515.0
2016-Aug-17 20:34N 53°37' E 001°42'1515.4
2016-Aug-17 19:34N 53°38' E 001°16'1515.3
2016-Aug-17 18:33N 53°36' E 000°50'1514.5
2016-Aug-17 17:33N 53°32' E 000°27'1111.0
2016-Aug-17 16:33N 53°33' E 000°08'8 7.5
2016-Aug-17 15:33N 53°35' W 000°04'0 0.0
2016-Aug-17 14:33N 53°35' W 000°04'0 0.0
2016-Aug-17 13:33N 53°35' W 000°04'0 0.0
2016-Aug-17 12:33N 53°35' W 000°04'0 0.0
2016-Aug-17 11:33N 53°35' W 000°04'0 0.0
2016-Aug-17 10:33N 53°35' W 000°04'0 0.0
2016-Aug-17 09:33N 53°35' W 000°04'0 0.0
2016-Aug-17 08:33N 53°35' W 000°04'0 0.0
2016-Aug-17 07:33N 53°35' W 000°04'0 0.0
2016-Aug-17 06:33N 53°35' W 000°04'0 0.0
2016-Aug-17 05:33N 53°35' W 000°04'0 0.0
2016-Aug-17 04:33N 53°35' W 000°04'5 4.5
2016-Aug-17 03:34N 53°35' E 000°04'10 9.7
2016-Aug-17 02:33N 53°33' E 000°20'5 5.2
2016-Aug-17 01:33N 53°33' E 000°29'6 6.2
2016-Aug-17 00:33N 53°34' E 000°39'1413.8
2016-Aug-16 23:33N 53°38' E 001°01'1715.2
2016-Aug-16 22:26N 53°44' E 001°28'1515.3
2016-Aug-16 21:27N 53°50' E 001°52'1314.1
2016-Aug-16 20:33N 53°55' E 002°11'1 1.2
2016-Aug-16 19:33N 53°56' E 002°13'0 0.4
2016-Aug-16 18:33N 53°56' E 002°14'46 4.4
2016-Aug-16 08:06N 53°59' E 003°31'914.8
2016-Aug-16 07:29N 53°59' E 003°47'4214.4
2016-Aug-16 04:33N 54°05' E 004°58'1010.1
2016-Aug-16 03:33N 54°01' E 005°14'1514.7
2016-Aug-16 02:33N 53°57' E 005°38'1515.5
2016-Aug-16 01:33N 53°52' E 006°03'1212.0
2016-Aug-16 00:33N 53°43' E 006°16'1211.9
2016-Aug-15 23:33N 53°37' E 006°34'1717.1
2016-Aug-15 22:34N 53°26' E 006°55'1010.2
2016-Aug-15 21:34N 53°20' E 007°10'1 1.3
2016-Aug-15 20:28N 53°21' E 007°12'0 0.0
2016-Aug-15 19:31N 53°21' E 007°12'0 0.0
2016-Aug-15 18:31N 53°21' E 007°12'0 0.0
2016-Aug-15 17:31N 53°21' E 007°12'0 0.0
2016-Aug-15 16:31N 53°21' E 007°12'0 0.0
2016-Aug-15 15:31N 53°21' E 007°12'0 0.0
2016-Aug-15 14:31N 53°21' E 007°12'0 0.0
2016-Aug-15 13:31N 53°21' E 007°12'0 0.0
2016-Aug-15 12:28N 53°21' E 007°12'0 0.0
2016-Aug-15 11:31N 53°21' E 007°12'0 0.0
2016-Aug-15 10:31N 53°21' E 007°12'0 0.1
2016-Aug-15 09:33N 53°21' E 007°12'2 1.6
2016-Aug-15 08:33N 53°20' E 007°09'1110.9
2016-Aug-15 07:34N 53°26' E 006°54'1616.2
2016-Aug-15 06:34N 53°37' E 006°33'2512.6
2016-Aug-15 04:34N 53°38' E 005°51'  

Dump ship's entire track history